Terminal Aerodrome Forecast
Issued by NWS

Home | Current Version | Previous Version | Text Only | Print | Product List | Glossary On
Versions: 1 2 3 4 5 6 7 8 9 10 11 12 13 14 15 16 17 18
000
FTUS41 KPHI 050542
TAFMIV
TAF
KMIV 050542Z 0506/0606 VRB03KT 3SM BR SCT015 BKN070 OVC100
      TEMPO 0508/0510 1SM BR SCT007
     FM051200 30006KT P6SM SCT040
     FM051900 29008G16KT P6SM SCT050
     FM052300 31004KT P6SM SCT060=

USA.gov is the U.S. government's official web portal to all federal, state and local government web resources and services.